createdAt,value
2018-06-04T00:00:24.190Z,16.80
2018-06-04T00:02:52.702Z,16.80
2018-06-04T00:05:21.228Z,16.80
2018-06-04T00:07:49.876Z,16.80
2018-06-04T00:10:18.610Z,16.80
2018-06-04T00:12:47.107Z,16.80
2018-06-04T00:15:15.643Z,16.80
2018-06-04T00:17:44.107Z,16.80
2018-06-04T00:20:12.663Z,16.80
2018-06-04T00:22:41.226Z,16.70
2018-06-04T00:27:37.958Z,16.70
2018-06-04T00:30:06.731Z,16.70
2018-06-04T00:32:35.214Z,16.70
2018-06-04T00:35:03.791Z,16.60
2018-06-04T00:37:32.293Z,16.60
2018-06-04T00:40:00.738Z,16.60
2018-06-04T00:42:29.275Z,16.60
2018-06-04T00:44:57.772Z,16.60
2018-06-04T00:47:26.267Z,16.60
2018-06-04T00:49:54.738Z,16.50
2018-06-04T00:52:23.214Z,16.50
2018-06-04T00:54:51.750Z,16.50
2018-06-04T00:57:20.239Z,16.50
2018-06-04T00:59:48.835Z,16.40
2018-06-04T01:02:17.331Z,16.40
2018-06-04T01:04:45.956Z,16.40
2018-06-04T01:07:14.638Z,16.40
2018-06-04T01:09:43.151Z,16.30
2018-06-04T01:12:11.627Z,16.30
2018-06-04T01:14:40.207Z,16.30
2018-06-04T01:17:08.791Z,16.30
2018-06-04T01:19:37.262Z,16.30
2018-06-04T01:22:05.984Z,16.30
2018-06-04T01:24:34.491Z,16.30
2018-06-04T01:27:02.967Z,16.20
2018-06-04T01:29:31.443Z,16.20
2018-06-04T01:31:59.907Z,16.20
2018-06-04T01:34:28.443Z,16.20
2018-06-04T01:36:57.279Z,16.20
2018-06-04T01:39:25.962Z,16.10
2018-06-04T01:41:54.438Z,16.20
2018-06-04T01:44:23.089Z,16.20
2018-06-04T01:46:51.590Z,16.20
2018-06-04T01:49:20.226Z,16.20
2018-06-04T01:51:48.728Z,16.20
2018-06-04T01:54:17.323Z,16.10
2018-06-04T01:56:45.789Z,16.10
2018-06-04T01:59:14.371Z,16.10
2018-06-04T02:01:43.022Z,16.10
2018-06-04T02:04:11.564Z,16.10
2018-06-04T02:06:40.266Z,16.00
2018-06-04T02:11:36.999Z,15.90
2018-06-04T02:14:05.608Z,15.90
2018-06-04T02:16:34.134Z,15.90
2018-06-04T02:19:02.704Z,15.90
2018-06-04T02:21:31.225Z,16.00
2018-06-04T02:23:59.735Z,15.90
2018-06-04T02:26:28.191Z,15.90
2018-06-04T02:31:25.133Z,15.90
2018-06-04T02:33:53.595Z,15.90
2018-06-04T02:36:22.051Z,15.80
2018-06-04T02:38:50.554Z,15.80
2018-06-04T02:41:19.196Z,15.80
2018-06-04T02:43:47.699Z,15.80
2018-06-04T02:46:16.242Z,15.80
2018-06-04T02:48:44.834Z,15.70
2018-06-04T02:51:13.351Z,15.70
2018-06-04T02:53:41.999Z,15.70
2018-06-04T02:56:10.492Z,15.70
2018-06-04T02:58:39.079Z,15.70
2018-06-04T03:01:07.615Z,15.70
2018-06-04T03:03:36.275Z,15.60
2018-06-04T03:06:04.817Z,15.60
2018-06-04T03:08:33.402Z,15.60
2018-06-04T03:11:01.896Z,15.60
2018-06-04T03:13:30.426Z,15.50
2018-06-04T03:15:59.152Z,15.50
2018-06-04T03:18:27.624Z,15.50
2018-06-04T03:20:56.253Z,15.50
2018-06-04T03:23:24.755Z,15.50
2018-06-04T03:25:53.356Z,15.50
2018-06-04T03:28:21.863Z,15.40
2018-06-04T03:30:50.644Z,15.40
2018-06-04T03:33:19.239Z,15.40
2018-06-04T03:35:47.991Z,15.40
2018-06-04T03:38:16.464Z,15.40
2018-06-04T03:40:45.052Z,15.40
2018-06-04T03:43:13.577Z,15.40
2018-06-04T03:45:42.036Z,15.40
2018-06-04T03:48:10.520Z,15.40
2018-06-04T03:50:39.002Z,15.40
2018-06-04T03:53:07.587Z,15.40
2018-06-04T03:55:36.079Z,15.40
2018-06-04T03:58:04.735Z,15.40
2018-06-04T04:03:01.519Z,15.50
2018-06-04T04:05:30.087Z,15.50
2018-06-04T04:07:58.599Z,15.50
2018-06-04T04:10:27.175Z,15.50
2018-06-04T04:12:55.648Z,15.50
2018-06-04T04:15:24.124Z,15.50
2018-06-04T04:17:52.586Z,15.60
2018-06-04T04:20:21.067Z,15.60
2018-06-04T04:22:49.551Z,15.60
2018-06-04T04:25:18.010Z,15.60
2018-06-04T04:27:46.654Z,15.70
2018-06-04T04:35:11.578Z,15.70
2018-06-04T04:37:40.092Z,15.80
2018-06-04T04:40:08.548Z,15.80
2018-06-04T04:42:37.022Z,15.80
2018-06-04T04:45:05.548Z,15.80
2018-06-04T04:47:34.174Z,15.90
2018-06-04T04:50:02.705Z,15.90
2018-06-04T04:52:31.308Z,15.90
2018-06-04T04:54:59.843Z,16.00
2018-06-04T04:57:28.361Z,16.00
2018-06-04T04:59:57.047Z,16.00
2018-06-04T05:02:25.563Z,16.00
2018-06-04T05:04:54.266Z,16.10
2018-06-04T05:07:22.803Z,16.10
2018-06-04T05:09:51.279Z,16.10
2018-06-04T05:12:19.771Z,16.20
2018-06-04T05:14:48.414Z,16.20
2018-06-04T05:17:16.871Z,16.20
2018-06-04T05:19:45.432Z,16.20
2018-06-04T05:22:13.991Z,16.20
2018-06-04T05:27:10.863Z,16.30
2018-06-04T05:29:39.303Z,16.30
2018-06-04T05:32:07.896Z,16.40
2018-06-04T05:34:36.540Z,16.40
2018-06-04T05:37:05.191Z,16.40
2018-06-04T05:39:33.591Z,16.40
2018-06-04T05:42:02.219Z,16.50
2018-06-04T05:44:30.979Z,16.50
2018-06-04T05:46:59.468Z,16.60
2018-06-04T05:49:27.959Z,16.60
2018-06-04T05:51:56.584Z,16.70
2018-06-04T05:54:25.119Z,16.70
2018-06-04T05:56:53.595Z,16.70
2018-06-04T05:59:22.299Z,16.70
2018-06-04T06:04:19.036Z,16.80
2018-06-04T06:06:47.578Z,16.80
2018-06-04T06:09:16.166Z,16.90
2018-06-04T06:11:44.643Z,16.90
2018-06-04T06:14:13.274Z,17.00
2018-06-04T06:16:41.976Z,17.00
2018-06-04T06:21:38.692Z,17.10
2018-06-04T06:24:07.407Z,17.20
2018-06-04T06:26:35.938Z,17.30
2018-06-04T06:29:04.504Z,17.30
2018-06-04T06:31:33.114Z,17.40
2018-06-04T06:34:01.599Z,17.50
2018-06-04T06:36:30.126Z,17.60
2018-06-04T06:38:58.619Z,17.70
2018-06-04T06:41:27.330Z,17.80
2018-06-04T06:43:55.822Z,17.90
2018-06-04T06:46:24.375Z,18.00
2018-06-04T06:48:52.923Z,18.00
2018-06-04T06:51:21.448Z,18.10
2018-06-04T06:53:50.131Z,18.30
2018-06-04T06:56:18.699Z,18.30
2018-06-04T06:58:47.171Z,18.50
2018-06-04T07:01:15.780Z,18.60
2018-06-04T07:03:44.262Z,18.70
2018-06-04T07:06:12.931Z,18.70
2018-06-04T07:08:41.507Z,18.80
2018-06-04T07:11:10.071Z,18.80
2018-06-04T07:13:38.731Z,18.90
2018-06-04T07:16:07.361Z,19.00
2018-06-04T07:18:35.875Z,19.00
2018-06-04T07:21:04.403Z,19.10
2018-06-04T07:23:32.944Z,19.10
2018-06-04T07:26:01.531Z,19.20
2018-06-04T07:28:30.126Z,19.30
2018-06-04T07:30:58.594Z,19.30
2018-06-04T07:33:27.151Z,19.40
2018-06-04T07:36:01.311Z,19.40
2018-06-04T07:38:29.791Z,19.50
2018-06-04T07:40:58.575Z,19.60
2018-06-04T07:43:27.000Z,19.70
2018-06-04T07:45:55.532Z,19.80
2018-06-04T07:48:24.096Z,19.80
2018-06-04T07:50:52.717Z,19.80
2018-06-04T07:53:21.272Z,19.80
2018-06-04T07:55:49.944Z,19.90
2018-06-04T07:58:18.720Z,19.90
2018-06-04T08:00:47.246Z,20.00
2018-06-04T08:03:16.130Z,20.00
2018-06-04T08:05:44.767Z,20.00
2018-06-04T08:08:13.306Z,20.10
2018-06-04T08:10:41.863Z,20.10
2018-06-04T08:13:10.670Z,20.20
2018-06-04T08:15:39.296Z,20.20
2018-06-04T08:18:07.759Z,20.20
2018-06-04T08:20:36.255Z,20.10
2018-06-04T08:23:04.895Z,20.20
2018-06-04T08:25:33.565Z,20.30
2018-06-04T08:28:02.171Z,20.40
2018-06-04T08:30:30.644Z,20.30
2018-06-04T08:32:59.327Z,20.50
2018-06-04T08:35:27.919Z,20.60
2018-06-04T08:37:56.447Z,20.70
2018-06-04T08:40:24.920Z,20.60
2018-06-04T08:42:53.531Z,20.60
2018-06-04T08:45:22.131Z,20.60
2018-06-04T08:47:50.585Z,20.60
2018-06-04T08:50:19.224Z,20.50
2018-06-04T08:55:16.213Z,20.60
2018-06-04T08:57:44.679Z,20.60
2018-06-04T09:00:13.157Z,20.70
2018-06-04T09:02:41.630Z,20.70
2018-06-04T09:05:10.262Z,20.80
2018-06-04T09:07:38.838Z,20.80
2018-06-04T09:10:07.471Z,20.90
2018-06-04T09:12:35.955Z,21.00
2018-06-04T09:17:32.815Z,21.10
2018-06-04T09:20:01.467Z,21.20
2018-06-04T09:22:29.968Z,21.30
2018-06-04T09:24:58.607Z,21.20
2018-06-04T09:27:27.198Z,21.30
2018-06-04T09:29:55.719Z,21.40
2018-06-04T09:32:24.390Z,21.30
2018-06-04T09:34:52.886Z,21.40
2018-06-04T09:37:21.448Z,21.50
2018-06-04T09:39:49.987Z,21.60
2018-06-04T09:42:18.732Z,21.70
2018-06-04T09:44:47.244Z,21.70
2018-06-04T09:47:15.720Z,21.90
2018-06-04T09:49:44.256Z,22.00
2018-06-04T09:52:12.864Z,22.10
2018-06-04T09:54:41.428Z,22.10
2018-06-04T09:57:09.984Z,21.90
2018-06-04T09:59:38.500Z,22.00
2018-06-04T10:04:35.379Z,22.00
2018-06-04T10:09:32.039Z,22.10
2018-06-04T10:12:00.738Z,22.20
2018-06-04T10:14:29.255Z,22.20
2018-06-04T10:16:57.896Z,22.30
2018-06-04T10:19:26.374Z,22.30
2018-06-04T10:21:55.220Z,22.30
2018-06-04T10:24:23.795Z,22.30
2018-06-04T10:26:52.364Z,22.30
2018-06-04T10:29:20.935Z,22.20
2018-06-04T10:31:49.548Z,22.20
2018-06-04T10:34:18.024Z,22.30
2018-06-04T10:36:46.983Z,22.60
2018-06-04T10:39:15.588Z,22.60
2018-06-04T10:41:44.242Z,22.50
2018-06-04T10:44:12.802Z,22.60
2018-06-04T10:46:41.366Z,22.70
2018-06-04T10:49:09.918Z,22.80
2018-06-04T10:51:38.507Z,22.80
2018-06-04T10:54:06.998Z,22.80
2018-06-04T10:56:35.520Z,22.70
2018-06-04T10:59:04.146Z,22.60
2018-06-04T11:01:32.732Z,22.40
2018-06-04T11:04:01.303Z,22.20
2018-06-04T11:06:29.863Z,22.10
2018-06-04T11:08:58.646Z,22.00
2018-06-04T11:11:27.244Z,21.90
2018-06-04T11:13:55.887Z,21.80
2018-06-04T11:16:24.392Z,21.70
2018-06-04T11:18:53.107Z,21.60
2018-06-04T11:21:21.693Z,21.50
2018-06-04T11:23:50.231Z,21.40
2018-06-04T11:26:18.828Z,21.40
2018-06-04T11:28:47.362Z,21.40
2018-06-04T11:31:15.836Z,21.50
2018-06-04T11:33:44.402Z,21.60
2018-06-04T11:36:12.939Z,21.70
2018-06-04T11:38:41.571Z,21.80
2018-06-04T11:41:10.045Z,22.00
2018-06-04T11:43:38.730Z,22.00
2018-06-04T11:46:07.320Z,22.00
2018-06-04T11:48:36.136Z,22.10
2018-06-04T11:51:05.060Z,21.90
2018-06-04T11:53:33.716Z,21.90
2018-06-04T11:56:02.228Z,21.80
2018-06-04T11:58:31.115Z,22.00
2018-06-04T12:00:59.626Z,22.00
2018-06-04T12:03:28.238Z,22.00
2018-06-04T12:05:56.831Z,22.00
2018-06-04T12:08:25.339Z,22.20
2018-06-04T12:10:54.164Z,22.10
2018-06-04T12:13:22.747Z,22.20
2018-06-04T12:15:51.296Z,22.20
2018-06-04T12:18:19.767Z,22.30
2018-06-04T12:20:48.431Z,22.40
2018-06-04T12:23:16.919Z,22.40
2018-06-04T12:28:13.767Z,22.60
2018-06-04T12:30:42.291Z,22.40
2018-06-04T12:33:11.002Z,22.30
2018-06-04T12:35:39.524Z,22.20
2018-06-04T12:38:07.980Z,22.10
2018-06-04T12:40:36.477Z,22.00
2018-06-04T12:43:05.162Z,22.10
2018-06-04T12:45:34.318Z,22.20
2018-06-04T12:48:02.834Z,22.30
2018-06-04T12:50:31.408Z,22.30
2018-06-04T12:52:59.911Z,22.30
2018-06-04T12:55:28.423Z,22.30
2018-06-04T12:57:57.059Z,22.40
2018-06-04T13:00:25.623Z,22.40
2018-06-04T13:02:54.126Z,22.40
2018-06-04T13:05:22.646Z,22.60
2018-06-04T13:07:51.207Z,22.60
2018-06-04T13:10:19.878Z,22.60
2018-06-04T13:12:48.311Z,22.60
2018-06-04T13:15:17.828Z,22.60
2018-06-04T13:17:46.435Z,22.50
2018-06-04T13:20:15.001Z,22.50
2018-06-04T13:22:43.699Z,22.50
2018-06-04T13:25:12.303Z,22.60
2018-06-04T13:27:40.857Z,22.60
2018-06-04T13:30:09.371Z,22.60
2018-06-04T13:32:37.858Z,22.70
2018-06-04T13:35:06.596Z,22.60
2018-06-04T13:37:35.350Z,22.60
2018-06-04T13:40:04.016Z,22.60
2018-06-04T13:45:01.175Z,22.60
2018-06-04T13:47:29.681Z,22.60
2018-06-04T13:49:58.343Z,22.60
2018-06-04T13:52:26.867Z,22.60
2018-06-04T13:54:55.463Z,22.70
2018-06-04T13:57:23.996Z,22.60
2018-06-04T13:59:52.582Z,22.50
2018-06-04T14:02:21.098Z,22.40
2018-06-04T14:04:49.699Z,22.50
2018-06-04T14:07:18.287Z,22.50
2018-06-04T14:09:46.750Z,22.40
2018-06-04T14:12:15.523Z,22.40
2018-06-04T14:14:43.990Z,22.30
2018-06-04T14:17:12.597Z,22.30
2018-06-04T14:19:41.064Z,22.20
2018-06-04T14:22:09.710Z,22.30
2018-06-04T14:24:38.323Z,22.30
2018-06-04T14:27:06.904Z,22.40
2018-06-04T14:29:35.383Z,22.30
2018-06-04T14:32:03.947Z,22.30
2018-06-04T14:34:32.502Z,22.30
2018-06-04T14:37:01.142Z,22.30
2018-06-04T14:39:29.688Z,22.40
2018-06-04T14:41:58.166Z,22.40
2018-06-04T14:44:26.781Z,22.50
2018-06-04T14:46:55.296Z,22.50
2018-06-04T14:49:24.100Z,22.50
2018-06-04T14:51:52.667Z,22.50
2018-06-04T14:54:21.256Z,22.50
2018-06-04T14:56:49.915Z,22.50
2018-06-04T14:59:18.418Z,22.50
2018-06-04T15:01:47.206Z,22.50
2018-06-04T15:04:15.845Z,22.50
2018-06-04T15:06:44.368Z,22.50
2018-06-04T15:09:13.077Z,22.50
2018-06-04T15:11:41.585Z,22.50
2018-06-04T15:14:10.107Z,22.40
2018-06-04T15:16:38.819Z,22.40
2018-06-04T15:19:07.598Z,22.40
2018-06-04T15:21:36.190Z,22.50
2018-06-04T15:24:04.711Z,22.40
2018-06-04T15:26:33.359Z,22.40
2018-06-04T15:31:30.238Z,22.40
2018-06-04T15:33:58.935Z,22.50
2018-06-04T15:36:27.461Z,22.50
2018-06-04T15:38:56.150Z,22.50
2018-06-04T15:41:24.780Z,22.40
2018-06-04T15:43:53.306Z,22.30
2018-06-04T15:46:21.874Z,22.30
2018-06-04T15:48:50.502Z,22.30
2018-06-04T15:51:19.058Z,22.30
2018-06-04T15:53:47.647Z,22.30
2018-06-04T15:56:16.186Z,22.30
2018-06-04T15:58:44.850Z,22.30
2018-06-04T16:03:41.706Z,22.30
2018-06-04T16:06:10.286Z,22.30
2018-06-04T16:08:38.818Z,22.20
2018-06-04T16:11:07.335Z,22.20
2018-06-04T16:13:35.921Z,22.20
2018-06-04T16:16:04.448Z,22.30
2018-06-04T16:18:32.964Z,22.20
2018-06-04T16:21:01.554Z,22.20
2018-06-04T16:23:30.091Z,22.20
2018-06-04T16:25:58.711Z,22.20
2018-06-04T16:28:27.194Z,22.20
2018-06-04T16:30:55.766Z,22.20
2018-06-04T16:33:24.296Z,22.20
2018-06-04T16:35:53.012Z,22.20
2018-06-04T16:38:21.507Z,22.20
2018-06-04T16:40:49.996Z,22.20
2018-06-04T16:43:18.675Z,22.20
2018-06-04T16:45:47.207Z,22.20
2018-06-04T16:48:15.809Z,22.20
2018-06-04T16:50:44.287Z,22.10
2018-06-04T16:53:12.857Z,22.10
2018-06-04T16:55:41.343Z,22.10
2018-06-04T16:58:09.963Z,22.10
2018-06-04T17:00:38.802Z,22.00
2018-06-04T17:03:07.301Z,22.00
2018-06-04T17:05:35.812Z,22.00
2018-06-04T17:08:04.323Z,22.10
2018-06-04T17:10:32.974Z,22.00
2018-06-04T17:13:01.530Z,22.00
2018-06-04T17:15:30.045Z,22.00
2018-06-04T17:17:58.562Z,22.00
2018-06-04T17:20:27.482Z,22.00
2018-06-04T17:22:56.019Z,22.00
2018-06-04T17:25:24.619Z,22.00
2018-06-04T17:27:53.282Z,22.00
2018-06-04T17:30:21.809Z,22.00
2018-06-04T17:32:50.470Z,21.90
2018-06-04T17:35:19.063Z,21.90
2018-06-04T17:37:47.719Z,21.90
2018-06-04T17:40:16.352Z,21.90
2018-06-04T17:42:45.184Z,21.90
2018-06-04T17:45:13.801Z,21.80
2018-06-04T17:50:10.639Z,21.80
2018-06-04T17:52:39.122Z,21.80
2018-06-04T17:55:07.737Z,21.80
2018-06-04T17:57:36.251Z,21.70
2018-06-04T18:00:05.484Z,21.70
2018-06-04T18:02:34.071Z,21.70
2018-06-04T18:05:02.603Z,21.60
2018-06-04T18:07:31.209Z,21.60
2018-06-04T18:09:59.900Z,21.60
2018-06-04T18:12:28.471Z,21.60
2018-06-04T18:14:57.232Z,21.50
2018-06-04T18:17:25.726Z,21.50
2018-06-04T18:19:54.226Z,21.50
2018-06-04T18:22:22.777Z,21.40
2018-06-04T18:24:51.379Z,21.40
2018-06-04T18:27:20.095Z,21.40
2018-06-04T18:29:48.742Z,21.30
2018-06-04T18:32:17.691Z,21.30
2018-06-04T18:34:46.232Z,21.30
2018-06-04T18:37:14.799Z,21.20
2018-06-04T18:39:43.614Z,21.20
2018-06-04T18:42:12.110Z,21.20
2018-06-04T18:44:40.865Z,21.10
2018-06-04T18:47:09.335Z,21.10
2018-06-04T18:49:38.147Z,21.10
2018-06-04T18:52:06.686Z,21.00
2018-06-04T18:54:35.557Z,21.00
2018-06-04T18:57:04.097Z,21.00
2018-06-04T18:59:32.660Z,20.90
2018-06-04T19:02:01.835Z,20.80
2018-06-04T19:04:30.547Z,20.80
2018-06-04T19:06:59.072Z,20.80
2018-06-04T19:09:27.725Z,20.80
2018-06-04T19:11:56.339Z,20.70
2018-06-04T19:14:24.902Z,20.70
2018-06-04T19:16:53.561Z,20.60
2018-06-04T19:19:22.267Z,20.60
2018-06-04T19:21:50.992Z,20.60
2018-06-04T19:24:19.758Z,20.50
2018-06-04T19:26:48.444Z,20.50
2018-06-04T19:29:16.959Z,20.40
2018-06-04T19:31:45.813Z,20.40
2018-06-04T19:36:42.696Z,20.30
2018-06-04T19:39:11.406Z,20.20
2018-06-04T19:41:39.859Z,20.20
2018-06-04T19:44:08.380Z,20.10
2018-06-04T19:46:36.999Z,20.10
2018-06-04T19:49:05.770Z,20.10
2018-06-04T19:51:34.459Z,20.10
2018-06-04T19:54:03.242Z,20.00
2018-06-04T19:56:32.039Z,19.90
2018-06-04T19:59:00.580Z,19.90
2018-06-04T20:01:29.224Z,19.90
2018-06-04T20:03:57.791Z,19.80
2018-06-04T20:06:26.338Z,19.80
2018-06-04T20:08:54.977Z,19.80
2018-06-04T20:11:23.545Z,19.70
2018-06-04T20:13:52.123Z,19.70
2018-06-04T20:16:20.700Z,19.60
2018-06-04T20:18:49.371Z,19.60
2018-06-04T20:21:17.966Z,19.60
2018-06-04T20:23:46.647Z,19.60
2018-06-04T20:26:15.406Z,19.50
2018-06-04T20:28:44.237Z,19.50
2018-06-04T20:31:12.755Z,19.50
2018-06-04T20:33:41.316Z,19.40
2018-06-04T20:36:10.099Z,19.40
2018-06-04T20:38:38.938Z,19.30
2018-06-04T20:41:07.463Z,19.30
2018-06-04T20:43:35.970Z,19.30
2018-06-04T20:46:04.632Z,19.30
2018-06-04T20:48:33.248Z,19.20
2018-06-04T20:51:01.959Z,19.20
2018-06-04T20:53:30.514Z,19.20
2018-06-04T20:55:59.079Z,19.10
2018-06-04T20:58:27.914Z,19.10
2018-06-04T21:00:56.472Z,19.10
2018-06-04T21:03:25.091Z,19.10
2018-06-04T21:05:53.726Z,19.00
2018-06-04T21:08:22.223Z,18.90
2018-06-04T21:10:51.786Z,18.90
2018-06-04T21:13:20.311Z,18.90
2018-06-04T21:15:48.911Z,18.90
2018-06-04T21:18:17.425Z,18.80
2018-06-04T21:20:45.930Z,18.80
2018-06-04T21:23:14.550Z,18.70
2018-06-04T21:25:43.125Z,18.70
2018-06-04T21:28:11.820Z,18.60
2018-06-04T21:30:40.665Z,18.60
2018-06-04T21:33:09.363Z,18.50
2018-06-04T21:35:37.857Z,18.50
2018-06-04T21:38:06.574Z,18.40
2018-06-04T21:40:35.187Z,18.40
2018-06-04T21:43:03.856Z,18.40
2018-06-04T21:45:32.419Z,18.30
2018-06-04T21:48:00.927Z,18.40
2018-06-04T21:50:29.467Z,18.30
2018-06-04T21:52:58.055Z,18.30
2018-06-04T21:55:26.858Z,18.30
2018-06-04T21:57:55.551Z,18.30
2018-06-04T22:00:24.143Z,18.20
2018-06-04T22:02:52.699Z,18.20
2018-06-04T22:05:21.276Z,18.20
2018-06-04T22:07:49.836Z,18.20
2018-06-04T22:10:18.683Z,18.10
2018-06-04T22:15:15.531Z,18.10
2018-06-04T22:17:44.051Z,18.10
2018-06-04T22:20:12.746Z,18.10
2018-06-04T22:22:41.495Z,18.00
2018-06-04T22:25:10.090Z,18.00
2018-06-04T22:27:38.636Z,17.90
2018-06-04T22:30:07.123Z,17.90
2018-06-04T22:32:35.830Z,17.90
2018-06-04T22:35:04.744Z,17.90
2018-06-04T22:37:33.227Z,17.90
2018-06-04T22:40:01.788Z,17.80
2018-06-04T22:42:30.301Z,17.70
2018-06-04T22:44:58.938Z,17.70
2018-06-04T22:47:27.478Z,17.70
2018-06-04T22:49:55.956Z,17.70
2018-06-04T22:52:24.648Z,17.70
2018-06-04T22:54:53.271Z,17.60
2018-06-04T22:57:21.812Z,17.60
2018-06-04T22:59:50.346Z,17.60
2018-06-04T23:02:18.814Z,17.60
2018-06-04T23:07:15.648Z,17.50
2018-06-04T23:09:44.370Z,17.40
2018-06-04T23:12:12.851Z,17.40
2018-06-04T23:14:41.390Z,17.40
2018-06-04T23:17:09.883Z,17.30
2018-06-04T23:19:38.367Z,17.40
2018-06-04T23:22:06.831Z,17.40
2018-06-04T23:24:35.431Z,17.50
2018-06-04T23:27:03.958Z,17.50
2018-06-04T23:29:32.423Z,17.40
2018-06-04T23:32:01.167Z,17.40
2018-06-04T23:34:29.618Z,17.40
2018-06-04T23:36:58.147Z,17.50
2018-06-04T23:39:26.655Z,17.40
2018-06-04T23:41:55.152Z,17.50
2018-06-04T23:44:23.627Z,17.50
2018-06-04T23:46:52.105Z,17.50
2018-06-04T23:49:24.989Z,17.40
2018-06-04T23:51:53.630Z,17.40
2018-06-04T23:56:50.313Z,17.40
2018-06-04T23:59:18.800Z,17.40
